LIBDLIMJ

Guest
Details From LIBD - Bari Palese Macchie
To LIMJ - Genova Sestri
Flight Number -
Tags generated
Created
Modified
Stats Distance 407 nm / 754 km
Max Altitude 0 ft / 0 m
Waypoints 8
Social Downloads 3
Likes 0
Share VATSIM

Download

Looking for another format? Having issues loading an existing format? Contact us
Advertisement - Login to hide

Notes

None

Route

LIBD AME UM872 PES UL168 PREKI UZ904 VALEN UM730 FRZ LIMJ

ID Type Via Altitude Latitude Longitude Leg Dist Tot Dist Heading (true) Name
O LIBD APT - 0 ft / 0 m 41.13787˚ 16.75832˚ - 0 nm - Bari Palese Macchie
AME NDB - 0 ft / 0 m 41.50000˚ 15.83778˚ 46 nm 46 nm 298° / 297° AMENDOLA NDB
PES VOR UM872 (AWY-HI) 0 ft / 0 m 42.43611˚ 14.18444˚ 92 nm 139 nm 308° / 307° PESCARA VOR-DME
PREKI FIX UL168 (AWY-HI) 0 ft / 0 m 42.87750˚ 13.11917˚ 54 nm 193 nm 300° / 299° -
VERNA FIX UZ904 (AWY-HI) 0 ft / 0 m 43.74222˚ 11.83167˚ 76 nm 270 nm 313° / 312° -
VALEN FIX UZ904 (AWY-HI) 0 ft / 0 m 43.93722˚ 11.53306˚ 17 nm 287 nm 312° / 312° -
FRZ VOR UM730 (AWY-HI) 0 ft / 0 m 44.02718˚ 11.00331˚ 23 nm 311 nm 283° / 283° FIRENZE VORTAC
O LIMJ APT - 0 ft / 0 m 44.41196˚ 8.84187˚ 95 nm 407 nm 285° / 283° Genova Sestri

Altitude Profile

Advertisement - Login to hide

Weather


0- 5 10 15 20 25 30 35+ Temperature / ° C

Clouds and Precipitation
Forecast for 2017-12-16 18:00 UTC. Updated 2 hours ago

Ground ~20,000 ft ~40,000 ft Winds

LIBD

Details ICAO LIBD (BRI)
Name Bari Palese Macchie
Region Italy
Timezone Europe/Rome (UTC+1.0)
Stats Elevation 177 ft / 54 m (AMSL)
Location 41.137865° 16.758318°
Runways 1
Magnetic Variation 3.738° E

METAR

LIBD 161650Z 22005KT 200V260 9999 FEW040 10/05 Q1007

Decode

TAF

TAF LIBD 161100Z 1612/1712 24013KT 9999 SCT030 BECMG 1618/1620 24018G28KT

Decode

Departure Runways

ID Width Length Bearing (true) Bearing (mag) Surface Threshold Offset Overrun Length
07 148 ft / 45 m 9,262 ft / 2,823 m 69.39° 65.65° Asphalt 1,257 ft / 383 m 0 ft / 0 m
25 148 ft / 45 m 9,262 ft / 2,823 m 249.42° 245.68° Asphalt 0 ft / 0 m 194 ft / 59 m

LIMJ

Details ICAO LIMJ (GOA)
Name Genova Sestri
Region Italy
Timezone Unknown (UTC+0.0)
Stats Elevation 13 ft / 4 m (AMSL)
Location 44.411957° 8.841866°
Runways 1
Magnetic Variation 2.388° E

METAR

LIMJ 161650Z 06009KT 010V090 CAVOK 05/01 Q1011

Decode

TAF

TAF LIMJ 161100Z 1612/1712 03015KT CAVOK

Decode

Destination Runways

ID Width Length Bearing (true) Bearing (mag) Surface Threshold Offset Overrun Length
10 148 ft / 45 m 9,574 ft / 2,918 m 105.39° 103.00° Asphalt 0 ft / 0 m 0 ft / 0 m
28 148 ft / 45 m 9,574 ft / 2,918 m 285.41° 283.02° Asphalt 538 ft / 164 m 0 ft / 0 m

Approach Navaids

Runway Type Ident Frequency Range Bearing (true) Bearing (mag) Slope Elevation
28 Localiser GSE 109.30 MHz 18 nm / 33 km 287.30° 284.91° - 9 ft / 3 m (AMSL)
28 Glidescope GSE 109.30 MHz 10 nm / 19 km 287.30° 284.91° 3.17° 26 ft / 8 m (AMSL)
28 DME GSE 109.30 MHz 18 nm / 33 km - - - 26 ft / 8 m (AMSL)

Popular Alternatives